Time;durP1;ratioP1;P1;durP2;ratioP2;P2;SDS_P1;SDS_P2;PMS_P1;PMS_P2;Temp;Humidity;BMP_temperature;BMP_pressure;BME280_temperature;BME280_humidity;BME280_pressure;Samples;Min_cycle;Max_cycle;Signal;HPM_P1;HPM_P2
2023/04/16 00:00:59;;;;;;;12.35;10.75;;;8.70;66.30;;;;;;5064015;27;115690;-82
2023/04/16 00:03:26;;;;;;;12.27;10.70;;;8.70;66.40;;;;;;5046810;27;114367;-82
2023/04/16 00:05:56;;;;;;;13.45;11.65;;;8.60;66.50;;;;;;5044237;27;114524;-81
2023/04/16 00:08:23;;;;;;;12.85;11.30;;;8.60;66.40;;;;;;5043603;27;115323;-82
2023/04/16 00:10:52;;;;;;;13.52;12.02;;;8.60;66.50;;;;;;5043877;27;115165;-82
2023/04/16 00:13:21;;;;;;;14.15;11.55;;;8.50;66.60;;;;;;5042705;27;114539;-82
2023/04/16 00:15:48;;;;;;;16.38;14.13;;;8.50;66.60;;;;;;5043078;27;114169;-82
2023/04/16 00:18:16;;;;;;;16.63;14.85;;;8.50;66.50;;;;;;5042690;27;115015;-82
2023/04/16 00:20:43;;;;;;;17.55;14.05;;;8.50;66.40;;;;;;5039486;27;114937;-82
2023/04/16 00:23:10;;;;;;;15.63;13.48;;;8.40;66.50;;;;;;5044833;27;115688;-82
2023/04/16 00:25:37;;;;;;;17.10;13.77;;;8.40;66.60;;;;;;5063613;27;114468;-81
2023/04/16 00:28:04;;;;;;;16.88;14.35;;;8.30;66.50;;;;;;5062317;27;114955;-82
2023/04/16 00:30:32;;;;;;;16.52;14.40;;;8.30;66.40;;;;;;5062266;27;115520;-81
2023/04/16 00:33:03;;;;;;;15.70;13.20;;;8.30;66.50;;;;;;5045708;27;114806;-82
2023/04/16 00:35:30;;;;;;;15.65;13.05;;;8.20;66.50;;;;;;5057605;27;115128;-82
2023/04/16 00:37:58;;;;;;;13.07;11.52;;;8.20;66.40;;;;;;5027153;27;116139;-82
2023/04/16 00:40:28;;;;;;;14.77;12.05;;;8.20;66.30;;;;;;5058549;27;115158;-82
2023/04/16 00:42:55;;;;;;;14.57;11.90;;;8.20;66.30;;;;;;5008510;27;114466;-83
2023/04/16 00:45:23;;;;;;;13.98;12.30;;;8.20;66.40;;;;;;5040560;27;117151;-82
2023/04/16 00:47:50;;;;;;;14.27;12.00;;;8.20;66.30;;;;;;5020279;27;116880;-82
2023/04/16 00:50:17;;;;;;;15.10;12.43;;;8.20;66.10;;;;;;5061456;27;115439;-82
2023/04/16 00:52:48;;;;;;;13.18;11.15;;;8.20;66.20;;;;;;5046223;27;114494;-82
2023/04/16 00:55:17;;;;;;;14.05;11.20;;;8.20;66.10;;;;;;5063130;27;114573;-82
2023/04/16 00:57:44;;;;;;;13.55;10.98;;;8.10;66.00;;;;;;5061948;27;114985;-82
2023/04/16 01:00:12;;;;;;;13.13;10.60;;;8.10;66.10;;;;;;5028839;27;114640;-82
2023/04/16 01:02:39;;;;;;;15.48;11.15;;;8.10;65.90;;;;;;5063957;27;114482;-82
2023/04/16 01:05:06;;;;;;;13.82;10.90;;;8.10;65.70;;;;;;5046008;27;114570;-83
2023/04/16 01:07:33;;;;;;;13.40;10.77;;;8.10;65.50;;;;;;5062177;27;114879;-82
2023/04/16 01:10:02;;;;;;;14.07;10.05;;;8.20;65.70;;;;;;5061885;27;114683;-83
2023/04/16 01:12:29;;;;;;;14.40;9.25;;;8.10;65.60;;;;;;5062962;27;114572;-82
2023/04/16 01:14:56;;;;;;;11.40;8.68;;;8.10;65.70;;;;;;5063682;27;114688;-82
2023/04/16 01:17:24;;;;;;;11.57;8.77;;;8.20;65.80;;;;;;5078308;27;116282;-82
2023/04/16 01:19:51;;;;;;;15.63;9.68;;;8.10;65.90;;;;;;5063014;27;119613;-82
2023/04/16 01:22:18;;;;;;;12.52;10.38;;;8.10;66.00;;;;;;5062780;27;114353;-83
2023/04/16 01:24:45;;;;;;;13.90;10.25;;;8.10;65.90;;;;;;5062994;27;114600;-83
2023/04/16 01:27:12;;;;;;;13.57;10.95;;;8.00;65.90;;;;;;5062416;27;115027;-82
2023/04/16 01:29:39;;;;;;;13.32;10.65;;;8.00;66.10;;;;;;5061688;27;115177;-83
2023/04/16 01:32:07;;;;;;;13.35;10.57;;;8.00;66.00;;;;;;5062789;27;114380;-83
2023/04/16 01:34:38;;;;;;;14.48;11.35;;;8.00;66.10;;;;;;5049491;27;114587;-83
2023/04/16 01:37:05;;;;;;;14.60;11.23;;;7.90;66.10;;;;;;5066953;27;115180;-82
2023/04/16 01:39:32;;;;;;;14.25;11.00;;;7.90;66.20;;;;;;5065757;27;116547;-82
2023/04/16 01:42:01;;;;;;;13.02;10.43;;;7.90;66.20;;;;;;5066832;27;114617;-83
2023/04/16 01:44:29;;;;;;;14.02;10.38;;;7.80;66.40;;;;;;5069200;27;114553;-82
2023/04/16 01:46:56;;;;;;;15.02;9.73;;;7.80;66.30;;;;;;5044410;27;114995;-82
2023/04/16 01:49:24;;;;;;;13.40;9.13;;;7.80;66.50;;;;;;5051264;27;115374;-82
2023/04/16 01:51:52;;;;;;;12.25;8.77;;;7.80;66.50;;;;;;5067745;27;114576;-82
2023/04/16 01:54:19;;;;;;;10.32;8.48;;;7.70;66.60;;;;;;5066624;27;114490;-82
2023/04/16 01:56:46;;;;;;;13.15;9.07;;;7.70;66.50;;;;;;5048111;27;115003;-82
2023/04/16 01:59:13;;;;;;;12.13;9.88;;;7.70;66.70;;;;;;5065052;27;115218;-82
2023/04/16 02:01:41;;;;;;;12.40;8.73;;;7.70;66.60;;;;;;5066591;27;114474;-82
2023/04/16 02:04:09;;;;;;;12.35;8.82;;;7.60;66.50;;;;;;5066377;27;114279;-82
2023/04/16 02:06:37;;;;;;;12.82;8.55;;;7.60;66.40;;;;;;5065404;27;114864;-82
2023/04/16 02:09:04;;;;;;;13.38;8.20;;;7.60;66.50;;;;;;5039851;27;114612;-82
2023/04/16 02:11:32;;;;;;;12.23;8.38;;;7.50;66.20;;;;;;5029088;27;114278;-83
2023/04/16 02:14:00;;;;;;;11.02;7.85;;;7.50;66.10;;;;;;5046056;27;114384;-82
2023/04/16 02:16:27;;;;;;;11.63;7.80;;;7.40;66.20;;;;;;5044697;27;116206;-82
2023/04/16 02:19:10;;;;;;;11.52;8.25;;;7.30;66.00;;;;;;5055961;27;114860;-82
2023/04/16 02:21:38;;;;;;;11.18;7.80;;;7.20;66.10;;;;;;5044514;27;114511;-82
2023/04/16 02:24:06;;;;;;;10.63;7.22;;;7.20;66.00;;;;;;5045035;27;114464;-82
2023/04/16 02:26:34;;;;;;;9.77;6.88;;;7.20;65.90;;;;;;5044492;27;114879;-82
2023/04/16 02:29:06;;;;;;;10.82;6.93;;;7.10;66.00;;;;;;5044341;27;114616;-82
2023/04/16 02:31:41;;;;;;;11.17;7.73;;;7.10;66.10;;;;;;5029502;27;114594;-83
2023/04/16 02:34:09;;;;;;;10.02;7.35;;;7.10;66.10;;;;;;5012230;27;114322;-83
2023/04/16 02:36:37;;;;;;;9.45;6.95;;;7.10;66.20;;;;;;5027451;27;115042;-82
2023/04/16 02:39:04;;;;;;;10.95;7.10;;;7.10;66.20;;;;;;5027822;27;114684;-82
2023/04/16 02:41:31;;;;;;;10.90;6.75;;;7.10;66.20;;;;;;5045945;27;115530;-83
2023/04/16 02:43:58;;;;;;;10.73;7.50;;;7.10;66.10;;;;;;5043516;27;114431;-83
2023/04/16 02:46:25;;;;;;;10.93;7.72;;;7.20;66.10;;;;;;5055066;27;115233;-83
2023/04/16 02:48:53;;;;;;;10.75;7.30;;;7.10;66.10;;;;;;5047056;27;116450;-83
2023/04/16 02:51:20;;;;;;;12.70;6.93;;;7.10;66.00;;;;;;5065977;27;114423;-82
2023/04/16 02:53:47;;;;;;;9.05;6.60;;;7.00;66.10;;;;;;5066035;27;114672;-83
2023/04/16 02:56:14;;;;;;;10.32;7.45;;;7.00;66.00;;;;;;5063763;27;114881;-82
2023/04/16 02:58:41;;;;;;;9.73;7.10;;;7.00;66.00;;;;;;5065092;27;115095;-82
2023/04/16 03:01:09;;;;;;;11.20;7.43;;;7.00;66.10;;;;;;5030746;27;114550;-82
2023/04/16 03:03:36;;;;;;;10.40;7.65;;;6.90;66.10;;;;;;5044781;27;114534;-82
2023/04/16 03:06:03;;;;;;;12.02;7.45;;;6.90;66.10;;;;;;5044492;27;115002;-82
2023/04/16 03:08:31;;;;;;;10.90;7.05;;;6.90;66.20;;;;;;5025914;27;116534;-83
2023/04/16 03:10:58;;;;;;;11.63;7.85;;;6.90;66.10;;;;;;5043958;27;114496;-83
2023/04/16 03:13:25;;;;;;;10.05;7.22;;;6.90;66.00;;;;;;5044179;27;114471;-83
2023/04/16 03:15:53;;;;;;;11.02;7.78;;;6.90;66.10;;;;;;5043091;27;115160;-82
2023/04/16 03:18:20;;;;;;;9.48;6.85;;;6.80;66.10;;;;;;5044326;27;114967;-82
2023/04/16 03:20:52;;;;;;;10.10;7.70;;;6.80;66.20;;;;;;5027517;27;114507;-82
2023/04/16 03:23:19;;;;;;;10.55;7.45;;;6.90;66.30;;;;;;5045201;27;114429;-83
2023/04/16 03:25:46;;;;;;;10.38;7.95;;;6.80;66.30;;;;;;5044291;27;115211;-82
2023/04/16 03:28:16;;;;;;;9.52;7.30;;;6.80;66.30;;;;;;5043106;27;114665;-83
2023/04/16 03:30:50;;;;;;;10.10;7.00;;;6.80;66.30;;;;;;5043758;27;114470;-83
2023/04/16 03:33:18;;;;;;;11.25;7.40;;;6.80;66.30;;;;;;5043789;27;114461;-83
2023/04/16 03:35:45;;;;;;;11.57;7.60;;;6.70;66.30;;;;;;5009024;27;114947;-83
2023/04/16 03:38:13;;;;;;;10.02;7.05;;;6.80;66.40;;;;;;5042612;27;116178;-82
2023/04/16 03:40:40;;;;;;;11.20;6.93;;;6.70;66.40;;;;;;5026940;27;118663;-82
2023/04/16 03:43:08;;;;;;;9.68;7.20;;;6.80;66.30;;;;;;5043389;27;114508;-82
2023/04/16 03:45:43;;;;;;;11.40;7.47;;;6.80;66.30;;;;;;5044473;27;114972;-83
2023/04/16 03:48:11;;;;;;;9.98;7.03;;;6.80;66.30;;;;;;5042719;27;114949;-83
2023/04/16 03:50:38;;;;;;;10.90;7.25;;;6.70;66.20;;;;;;5043754;27;114629;-83
2023/04/16 03:53:08;;;;;;;11.13;7.53;;;6.70;66.20;;;;;;5044432;27;115257;-83
2023/04/16 03:55:35;;;;;;;10.98;7.95;;;6.70;66.20;;;;;;5042586;27;114824;-83
2023/04/16 03:58:03;;;;;;;9.52;7.10;;;6.70;66.10;;;;;;5025620;27;114826;-83
2023/04/16 04:00:31;;;;;;;12.02;8.30;;;6.70;66.10;;;;;;5026399;27;114556;-83
2023/04/16 04:03:05;;;;;;;11.15;7.07;;;6.50;66.20;;;;;;5043213;27;115135;-83
2023/04/16 04:05:40;;;;;;;11.65;7.97;;;6.40;66.50;;;;;;5025580;27;114858;-84
2023/04/16 04:08:10;;;;;;;13.73;7.82;;;6.40;66.70;;;;;;5010360;27;114556;-83
2023/04/16 04:10:37;;;;;;;13.05;8.43;;;6.50;66.70;;;;;;5027036;27;114472;-83
2023/04/16 04:13:06;;;;;;;10.93;7.25;;;6.50;66.80;;;;;;5043865;27;114537;-82
2023/04/16 04:15:34;;;;;;;10.05;7.32;;;6.50;66.90;;;;;;5026505;27;114897;-83
2023/04/16 04:18:01;;;;;;;9.80;7.00;;;6.60;66.90;;;;;;5049540;27;114682;-83
2023/04/16 04:20:29;;;;;;;11.13;7.15;;;6.70;67.10;;;;;;5065124;27;114343;-83
2023/04/16 04:22:58;;;;;;;10.85;7.05;;;6.70;67.10;;;;;;5064804;27;114371;-83
2023/04/16 04:25:26;;;;;;;9.90;7.03;;;6.90;66.80;;;;;;5052633;27;114862;-83
2023/04/16 04:27:53;;;;;;;10.98;7.05;;;7.10;66.60;;;;;;5063452;27;114661;-83
2023/04/16 04:30:21;;;;;;;10.43;6.95;;;7.20;66.40;;;;;;5064628;27;114583;-83
2023/04/16 04:32:48;;;;;;;8.95;6.00;;;7.30;66.00;;;;;;5063275;27;114494;-83
2023/04/16 04:35:16;;;;;;;10.57;7.00;;;7.50;65.80;;;;;;5025731;27;115042;-83
2023/04/16 04:37:43;;;;;;;10.10;6.97;;;7.60;65.60;;;;;;5042826;27;116016;-83
2023/04/16 04:40:14;;;;;;;8.52;6.20;;;7.70;65.10;;;;;;5059950;27;114516;-82
2023/04/16 04:42:41;;;;;;;9.32;6.40;;;7.80;64.70;;;;;;5044746;27;114204;-83
2023/04/16 04:45:09;;;;;;;11.23;6.85;;;7.80;64.50;;;;;;5042046;27;114859;-83
2023/04/16 04:47:36;;;;;;;9.38;6.05;;;7.80;64.20;;;;;;5024779;27;117592;-82
2023/04/16 04:50:04;;;;;;;11.75;6.57;;;7.80;64.10;;;;;;5043502;27;114554;-83
2023/04/16 04:52:32;;;;;;;9.55;6.38;;;7.80;63.90;;;;;;5042055;27;114496;-83
2023/04/16 04:55:01;;;;;;;11.05;6.32;;;7.90;63.80;;;;;;5024708;27;117728;-83
2023/04/16 04:57:29;;;;;;;9.93;6.03;;;8.10;63.70;;;;;;5023890;27;115422;-83
2023/04/16 04:59:57;;;;;;;8.85;6.00;;;8.20;63.70;;;;;;5025697;27;114451;-82
2023/04/16 05:02:24;;;;;;;9.48;6.93;;;8.20;63.30;;;;;;5042036;27;114572;-83
2023/04/16 05:04:51;;;;;;;9.23;6.50;;;8.40;62.90;;;;;;5042737;27;114820;-83
2023/04/16 05:07:18;;;;;;;9.88;6.55;;;8.50;63.00;;;;;;5056864;27;116682;-82
2023/04/16 05:09:45;;;;;;;11.65;7.57;;;8.50;62.60;;;;;;5045945;27;116264;-83
2023/04/16 05:12:13;;;;;;;9.50;6.57;;;8.60;62.50;;;;;;5029133;27;114979;-81
2023/04/16 05:14:40;;;;;;;8.05;6.10;;;8.70;62.50;;;;;;5027263;27;115600;-83
2023/04/16 05:17:09;;;;;;;10.07;6.50;;;8.80;62.40;;;;;;5045881;27;114880;-84
2023/04/16 05:19:37;;;;;;;10.85;6.93;;;8.90;62.20;;;;;;5045697;27;114569;-82
2023/04/16 05:22:04;;;;;;;10.82;7.85;;;9.10;62.00;;;;;;5046003;27;117081;-82
2023/04/16 05:24:31;;;;;;;11.23;7.53;;;9.20;61.40;;;;;;5045678;27;115029;-83
2023/04/16 05:26:58;;;;;;;12.30;7.68;;;9.40;61.00;;;;;;5046793;27;114675;-83
2023/04/16 05:29:27;;;;;;;10.93;7.50;;;9.60;60.70;;;;;;5046054;27;117689;-83
2023/04/16 05:31:54;;;;;;;10.90;7.20;;;9.70;60.20;;;;;;5030280;27;114525;-83
2023/04/16 05:34:21;;;;;;;12.93;7.70;;;10.00;60.10;;;;;;5046507;27;115016;-84
2023/04/16 05:36:48;;;;;;;11.95;7.50;;;10.20;59.80;;;;;;5045186;27;114739;-83
2023/04/16 05:39:16;;;;;;;10.90;7.38;;;10.30;59.30;;;;;;5046859;27;114301;-82
2023/04/16 05:41:43;;;;;;;12.55;7.88;;;10.50;59.20;;;;;;5047110;27;114337;-82
2023/04/16 05:44:10;;;;;;;13.20;8.07;;;10.80;58.50;;;;;;5044712;27;114976;-82
2023/04/16 05:46:37;;;;;;;11.98;7.72;;;11.00;57.90;;;;;;5045690;27;114919;-82
2023/04/16 05:49:04;;;;;;;12.75;8.15;;;11.20;57.60;;;;;;5062573;27;115361;-82
2023/04/16 05:51:32;;;;;;;15.88;8.75;;;11.30;57.30;;;;;;5066621;27;114371;-83
2023/04/16 05:54:00;;;;;;;15.18;8.25;;;11.60;57.00;;;;;;5064530;27;115583;-83
2023/04/16 05:56:27;;;;;;;13.77;7.95;;;11.70;56.40;;;;;;5048907;27;116002;-83
2023/04/16 05:58:55;;;;;;;14.30;8.48;;;11.90;56.00;;;;;;5065627;27;114496;-84
2023/04/16 06:01:22;;;;;;;16.77;9.02;;;12.20;55.40;;;;;;5066546;27;114425;-83
2023/04/16 06:03:52;;;;;;;14.15;8.85;;;12.30;54.70;;;;;;5065285;27;115697;-82
2023/04/16 06:06:20;;;;;;;16.17;8.57;;;12.50;54.30;;;;;;5065734;27;114552;-84
2023/04/16 06:08:47;;;;;;;14.80;8.13;;;12.70;54.20;;;;;;5065798;27;114600;-82
2023/04/16 06:11:14;;;;;;;13.80;8.20;;;12.90;53.60;;;;;;5048810;27;114722;-83
2023/04/16 06:13:42;;;;;;;14.50;7.82;;;13.00;53.50;;;;;;5065715;27;116196;-84
2023/04/16 06:16:09;;;;;;;12.35;7.18;;;13.20;53.20;;;;;;5064457;27;115921;-84
2023/04/16 06:18:36;;;;;;;15.25;8.00;;;13.40;52.70;;;;;;5067175;27;114491;-84
2023/04/16 06:21:04;;;;;;;15.65;8.40;;;13.60;52.40;;;;;;5053672;27;114193;-84
2023/04/16 06:23:31;;;;;;;16.30;7.65;;;13.70;51.80;;;;;;5027483;27;115200;-84
2023/04/16 06:25:59;;;;;;;13.38;7.78;;;13.90;52.00;;;;;;5046025;27;114750;-84
2023/04/16 06:28:29;;;;;;;18.23;8.93;;;14.00;51.40;;;;;;5048707;27;114275;-84
2023/04/16 06:30:57;;;;;;;18.30;9.38;;;14.20;51.10;;;;;;5046121;27;118846;-84
2023/04/16 06:33:24;;;;;;;17.45;8.73;;;14.30;50.50;;;;;;5044083;27;118146;-83
2023/04/16 06:35:51;;;;;;;21.17;8.85;;;14.40;50.00;;;;;;5026672;27;118534;-84
2023/04/16 06:38:18;;;;;;;19.55;7.90;;;14.50;49.40;;;;;;5045048;27;114442;-83
2023/04/16 06:40:45;;;;;;;13.18;5.45;;;14.60;49.80;;;;;;5065700;27;115901;-83
2023/04/16 06:43:14;;;;;;;12.13;6.97;;;14.60;49.20;;;;;;5047752;27;118183;-83
2023/04/16 06:45:41;;;;;;;15.80;6.53;;;14.60;49.30;;;;;;5065243;27;117182;-83
2023/04/16 06:48:09;;;;;;;9.45;5.10;;;14.60;49.30;;;;;;5064705;27;114586;-84
2023/04/16 06:50:40;;;;;;;9.95;5.47;;;14.70;49.10;;;;;;5031084;27;114358;-84
2023/04/16 06:53:07;;;;;;;10.43;4.68;;;14.70;49.00;;;;;;5063575;27;115553;-84
2023/04/16 06:55:35;;;;;;;7.00;3.97;;;14.80;48.60;;;;;;5065704;27;117172;-85
2023/04/16 06:58:04;;;;;;;5.65;3.15;;;14.80;48.40;;;;;;5071811;27;114386;-83
2023/04/16 07:00:31;;;;;;;8.43;3.95;;;14.80;48.30;;;;;;5092683;27;114558;-84
2023/04/16 07:03:00;;;;;;;6.20;3.53;;;14.80;48.40;;;;;;5072845;27;114156;-84
2023/04/16 07:05:30;;;;;;;5.90;3.67;;;14.90;47.90;;;;;;5063906;27;114433;-84
2023/04/16 07:08:01;;;;;;;4.88;3.50;;;14.80;48.20;;;;;;5046959;27;114512;-84
2023/04/16 07:10:29;;;;;;;5.65;3.10;;;14.80;48.30;;;;;;5045600;27;115554;-83
2023/04/16 07:12:57;;;;;;;6.93;3.95;;;14.90;48.50;;;;;;5047695;27;115734;-84
2023/04/16 07:15:25;;;;;;;5.60;3.88;;;15.00;48.10;;;;;;5047078;27;114830;-83
2023/04/16 07:17:53;;;;;;;5.20;3.38;;;15.10;48.30;;;;;;5044466;27;114298;-84
2023/04/16 07:20:23;;;;;;;7.13;4.35;;;15.10;48.40;;;;;;5045501;27;114256;-85
2023/04/16 07:22:52;;;;;;;6.50;3.95;;;15.10;48.10;;;;;;5044472;27;115229;-85
2023/04/16 07:25:19;;;;;;;7.03;3.83;;;15.20;47.80;;;;;;5043419;27;114913;-84
2023/04/16 07:27:46;;;;;;;5.90;3.33;;;15.20;47.70;;;;;;5044695;27;116363;-84
2023/04/16 07:30:14;;;;;;;5.80;3.50;;;15.10;47.20;;;;;;5026351;27;114435;-84
2023/04/16 07:32:43;;;;;;;5.07;2.95;;;15.10;47.60;;;;;;5043038;27;114929;-84
2023/04/16 07:35:13;;;;;;;4.80;2.70;;;15.10;47.60;;;;;;5044690;27;115139;-83
2023/04/16 07:37:40;;;;;;;4.57;2.88;;;15.10;47.00;;;;;;5053387;27;114542;-82
2023/04/16 07:40:07;;;;;;;5.38;3.55;;;15.10;47.40;;;;;;5065415;27;114485;-83
2023/04/16 07:42:35;;;;;;;6.35;3.50;;;15.10;47.40;;;;;;5063137;27;114900;-85
2023/04/16 07:45:02;;;;;;;4.78;3.47;;;15.10;47.70;;;;;;5063505;27;114754;-84
2023/04/16 07:47:29;;;;;;;4.47;3.40;;;15.20;47.40;;;;;;5065614;27;114642;-85
2023/04/16 07:49:56;;;;;;;4.35;3.20;;;15.20;47.10;;;;;;5063726;27;114633;-83
2023/04/16 07:52:24;;;;;;;5.13;3.17;;;15.30;47.20;;;;;;5065108;27;115298;-83
2023/04/16 07:54:54;;;;;;;3.95;2.70;;;15.30;47.00;;;;;;5065182;27;114262;-84
2023/04/16 07:57:21;;;;;;;4.43;2.88;;;15.20;47.10;;;;;;5065516;27;114414;-85
2023/04/16 07:59:48;;;;;;;4.18;2.55;;;15.30;46.90;;;;;;5040566;27;115863;-83
2023/04/16 08:02:15;;;;;;;4.68;3.13;;;15.40;46.90;;;;;;5042653;27;115940;-84
2023/04/16 08:04:43;;;;;;;4.57;2.88;;;15.50;46.80;;;;;;5043424;27;114911;-84
2023/04/16 08:07:10;;;;;;;3.70;2.90;;;15.60;46.20;;;;;;5033378;27;114713;-85
2023/04/16 08:09:46;;;;;;;3.35;2.47;;;15.50;45.60;;;;;;5081084;27;114578;-85
2023/04/16 08:12:13;;;;;;;3.53;2.30;;;15.40;45.30;;;;;;5040704;27;114914;-84
2023/04/16 08:14:43;;;;;;;3.20;1.85;;;15.30;46.20;;;;;;5028196;27;114715;-83
2023/04/16 08:17:11;;;;;;;3.20;2.20;;;15.40;45.50;;;;;;5047202;27;114657;-84
2023/04/16 08:19:38;;;;;;;3.72;2.35;;;15.50;45.50;;;;;;5064714;27;114501;-84
2023/04/16 08:22:05;;;;;;;4.40;2.78;;;15.50;46.30;;;;;;5064020;27;114911;-83
2023/04/16 08:24:32;;;;;;;4.47;2.90;;;15.60;46.10;;;;;;5064671;27;115841;-84
2023/04/16 08:27:00;;;;;;;4.68;2.90;;;15.70;45.80;;;;;;5063775;27;115658;-84
2023/04/16 08:29:43;;;;;;;4.57;2.70;;;15.70;45.80;;;;;;5034657;27;116151;-84
2023/04/16 08:32:10;;;;;;;3.80;2.63;;;15.70;45.60;;;;;;5028842;27;117990;-85
2023/04/16 08:34:42;;;;;;;3.92;2.50;;;15.80;45.50;;;;;;5046450;27;122228;-84
2023/04/16 08:37:12;;;;;;;3.63;2.63;;;15.80;44.80;;;;;;5031178;27;114546;-84
2023/04/16 08:39:44;;;;;;;4.78;2.55;;;15.90;44.60;;;;;;5063518;27;114379;-85
2023/04/16 08:42:22;;;;;;;3.20;2.25;;;15.90;43.90;;;;;;5031433;27;118315;-84
2023/04/16 08:44:49;;;;;;;3.92;2.30;;;16.00;43.60;;;;;;5033114;27;116508;-84
2023/04/16 08:47:17;;;;;;;3.70;2.33;;;16.00;43.60;;;;;;5044937;27;114423;-85
2023/04/16 08:49:45;;;;;;;4.50;2.10;;;15.90;43.50;;;;;;4980602;27;114313;-85
2023/04/16 08:52:21;;;;;;;3.92;1.88;;;15.80;43.20;;;;;;5012088;27;118198;-85
2023/04/16 08:55:09;;;;;;;3.13;2.10;;;15.70;43.50;;;;;;5029995;27;115109;-84
2023/04/16 08:57:39;;;;;;;3.15;1.98;;;15.50;44.10;;;;;;5012936;27;114361;-84
2023/04/16 09:00:07;;;;;;;5.38;2.00;;;15.40;43.40;;;;;;5030832;27;114468;-85
2023/04/16 09:02:37;;;;;;;2.70;1.60;;;15.50;43.40;;;;;;4996713;27;118072;-86
2023/04/16 09:05:20;;;;;;;3.97;1.67;;;15.50;43.00;;;;;;5015521;27;115424;-84
2023/04/16 09:07:49;;;;;;;2.85;1.70;;;15.60;42.90;;;;;;5014388;27;114652;-85
2023/04/16 09:10:16;;;;;;;3.38;1.77;;;15.50;42.50;;;;;;5047862;27;114339;-84
2023/04/16 09:12:44;;;;;;;3.40;1.80;;;15.50;43.20;;;;;;5012413;27;118481;-85
2023/04/16 09:15:11;;;;;;;2.45;1.60;;;15.60;43.20;;;;;;5012384;27;114592;-85
2023/04/16 09:17:39;;;;;;;3.65;1.70;;;15.70;43.00;;;;;;5030751;27;114591;-84
2023/04/16 09:20:10;;;;;;;1.92;1.27;;;15.80;42.70;;;;;;5013257;27;114561;-85
2023/04/16 09:22:41;;;;;;;4.72;3.03;;;15.80;42.50;;;;;;5013000;27;115064;-85
2023/04/16 09:25:10;;;;;;;3.67;2.58;;;15.90;42.90;;;;;;5030280;27;115314;-85
2023/04/16 09:27:37;;;;;;;3.85;1.85;;;16.00;43.20;;;;;;5047211;27;114327;-83
2023/04/16 09:30:23;;;;;;;3.63;1.98;;;16.20;42.60;;;;;;5030988;27;114724;-84
2023/04/16 09:33:11;;;;;;;3.85;1.90;;;16.30;42.60;;;;;;5012247;27;114890;-84
2023/04/16 09:35:46;;;;;;;4.22;2.67;;;16.40;41.90;;;;;;5038363;27;117629;-83
2023/04/16 09:38:13;;;;;;;4.25;2.95;;;16.50;41.90;;;;;;5040216;27;114223;-83
2023/04/16 09:40:40;;;;;;;4.30;2.38;;;16.50;43.00;;;;;;5023771;27;114807;-85
2023/04/16 09:43:11;;;;;;;4.10;2.33;;;16.50;42.10;;;;;;5031996;27;116988;-85
2023/04/16 09:45:50;;;;;;;4.05;2.70;;;16.50;41.70;;;;;;5045900;27;116764;-84
2023/04/16 09:48:30;;;;;;;5.60;2.50;;;16.50;41.70;;;;;;5046461;27;114393;-84
2023/04/16 09:50:59;;;;;;;4.00;2.72;;;16.30;41.70;;;;;;5029009;27;114585;-83
2023/04/16 09:53:27;;;;;;;4.25;2.67;;;16.10;42.20;;;;;;5010864;27;117826;-84
2023/04/16 09:56:01;;;;;;;3.60;2.40;;;16.00;42.10;;;;;;5027771;27;116943;-83
2023/04/16 09:58:44;;;;;;;4.53;2.42;;;15.90;41.90;;;;;;5029499;27;114591;-85
2023/04/16 10:01:12;;;;;;;3.67;2.30;;;15.70;42.00;;;;;;5056783;27;114556;-85
2023/04/16 10:03:39;;;;;;;4.20;2.78;;;15.60;42.30;;;;;;5042773;27;114843;-86
2023/04/16 10:06:14;;;;;;;5.82;2.45;;;15.50;42.80;;;;;;5051103;27;114740;-85
2023/04/16 10:08:48;;;;;;;3.97;2.60;;;15.60;42.80;;;;;;5064688;27;114572;-83
2023/04/16 10:11:20;;;;;;;4.15;2.22;;;15.70;42.70;;;;;;5047718;27;114529;-84
2023/04/16 10:13:50;;;;;;;3.22;2.25;;;15.60;42.10;;;;;;5049264;27;115357;-84
2023/04/16 10:16:17;;;;;;;5.65;2.60;;;15.60;41.90;;;;;;5032723;27;114586;-84
2023/04/16 10:18:45;;;;;;;3.28;2.20;;;15.70;42.10;;;;;;5050467;27;114291;-84
2023/04/16 10:21:15;;;;;;;3.38;2.10;;;15.80;42.00;;;;;;5029517;27;114503;-85
2023/04/16 10:23:42;;;;;;;3.42;2.20;;;15.90;41.80;;;;;;5064553;27;117113;-84
2023/04/16 10:26:10;;;;;;;4.38;2.20;;;15.90;41.60;;;;;;5009380;27;115036;-84
2023/04/16 10:28:40;;;;;;;6.32;2.58;;;15.80;41.90;;;;;;5044643;27;114654;-85
2023/04/16 10:31:10;;;;;;;3.80;2.30;;;15.80;42.70;;;;;;5044275;27;114472;-86
2023/04/16 10:33:40;;;;;;;4.07;2.35;;;15.80;42.50;;;;;;5058385;27;115586;-84
2023/04/16 10:36:14;;;;;;;3.25;1.92;;;15.70;42.90;;;;;;5058664;27;114648;-85
2023/04/16 10:38:46;;;;;;;3.80;2.05;;;15.70;42.30;;;;;;5043277;27;114507;-84
2023/04/16 10:41:13;;;;;;;3.58;1.95;;;15.80;42.00;;;;;;5027161;27;114519;-85
2023/04/16 10:43:42;;;;;;;3.55;2.20;;;15.70;41.80;;;;;;5044401;27;116166;-84
2023/04/16 10:46:23;;;;;;;4.47;2.75;;;15.70;41.80;;;;;;5064408;27;114819;-85
2023/04/16 10:48:54;;;;;;;3.28;2.20;;;15.70;41.80;;;;;;5063943;27;114709;-84
2023/04/16 10:51:28;;;;;;;3.45;1.73;;;15.70;41.70;;;;;;5047347;27;115117;-84
2023/04/16 10:54:18;;;;;;;5.05;2.10;;;15.60;41.60;;;;;;5045755;27;118557;-85
2023/04/16 10:56:45;;;;;;;3.70;1.75;;;15.70;42.10;;;;;;5063592;27;114681;-85
2023/04/16 10:59:13;;;;;;;3.45;1.90;;;15.70;41.90;;;;;;5030217;27;114588;-85
2023/04/16 11:01:41;;;;;;;3.25;1.80;;;15.80;41.60;;;;;;5046595;27;115015;-84
2023/04/16 11:04:18;;;;;;;3.10;1.48;;;15.90;41.50;;;;;;5062889;27;115138;-83
2023/04/16 11:07:06;;;;;;;3.60;1.70;;;16.20;41.40;;;;;;5062607;27;115933;-84
2023/04/16 11:09:58;;;;;;;2.83;1.80;;;16.40;41.30;;;;;;5065369;27;114606;-84
2023/04/16 11:12:28;;;;;;;3.13;1.80;;;16.50;40.80;;;;;;5052779;27;114639;-85
2023/04/16 11:15:09;;;;;;;2.67;1.55;;;16.40;40.00;;;;;;5044649;27;114862;-84
2023/04/16 11:17:43;;;;;;;3.38;1.80;;;16.30;40.20;;;;;;5044380;27;115053;-84
2023/04/16 11:20:26;;;;;;;4.95;1.80;;;16.20;40.20;;;;;;5043877;27;114695;-83
2023/04/16 11:22:55;;;;;;;3.35;1.77;;;16.10;40.10;;;;;;5060466;27;114415;-83
2023/04/16 11:25:23;;;;;;;3.97;2.95;;;16.10;40.40;;;;;;5041738;27;116495;-84
2023/04/16 11:27:51;;;;;;;2.90;1.80;;;16.10;39.80;;;;;;5025487;27;117229;-84
2023/04/16 11:30:26;;;;;;;2.97;1.80;;;15.90;40.60;;;;;;5025873;27;114215;-84
2023/04/16 11:32:55;;;;;;;5.55;4.10;;;16.00;41.00;;;;;;5041513;27;117527;-84
2023/04/16 11:35:22;;;;;;;4.00;1.90;;;16.00;40.50;;;;;;5043318;27;115064;-84
2023/04/16 11:37:50;;;;;;;3.20;2.05;;;16.20;40.80;;;;;;5041951;27;114905;-84
2023/04/16 11:40:19;;;;;;;5.30;4.25;;;16.30;40.80;;;;;;5043215;27;114760;-84
2023/04/16 11:42:47;;;;;;;3.72;2.42;;;16.60;40.30;;;;;;5026356;27;117213;-84
2023/04/16 11:45:14;;;;;;;3.30;1.65;;;16.70;40.50;;;;;;5041813;27;114864;-84
2023/04/16 11:47:50;;;;;;;3.63;1.98;;;16.80;40.00;;;;;;5042837;27;116013;-84
2023/04/16 11:50:23;;;;;;;3.30;2.08;;;16.90;39.70;;;;;;4993049;27;114800;-83
2023/04/16 11:52:51;;;;;;;3.08;1.83;;;16.90;40.20;;;;;;5042918;27;114530;-84
2023/04/16 11:55:20;;;;;;;3.80;2.58;;;17.00;39.60;;;;;;5024685;27;116864;-84
2023/04/16 11:57:47;;;;;;;4.35;1.80;;;16.90;39.40;;;;;;5041545;27;116193;-84
2023/04/16 12:00:19;;;;;;;3.78;1.80;;;16.80;38.70;;;;;;5026381;27;114499;-85
2023/04/16 12:02:51;;;;;;;3.42;2.05;;;16.70;38.50;;;;;;5043329;27;114844;-83
2023/04/16 12:05:31;;;;;;;3.05;1.40;;;16.20;38.80;;;;;;5009399;27;117773;-83
2023/04/16 12:08:00;;;;;;;3.10;1.58;;;16.00;39.10;;;;;;5042586;27;114624;-84
2023/04/16 12:10:27;;;;;;;2.42;1.40;;;15.80;39.50;;;;;;5010010;27;114431;-84
2023/04/16 12:13:14;;;;;;;3.33;2.05;;;15.70;39.70;;;;;;5041614;27;114538;-84
2023/04/16 12:15:47;;;;;;;3.20;1.80;;;15.60;39.80;;;;;;5042790;27;115887;-85
2023/04/16 12:18:15;;;;;;;2.70;1.50;;;15.50;40.00;;;;;;5042842;27;114664;-85
2023/04/16 12:20:43;;;;;;;3.42;1.70;;;15.40;40.30;;;;;;5042541;27;114670;-85
2023/04/16 12:23:23;;;;;;;3.80;1.90;;;15.40;40.40;;;;;;5042375;27;114370;-84
2023/04/16 12:25:52;;;;;;;2.75;1.60;;;15.50;41.00;;;;;;5039578;27;116894;-84
2023/04/16 12:28:30;;;;;;;3.35;2.00;;;15.50;40.30;;;;;;5041454;27;118296;-85
2023/04/16 12:30:58;;;;;;;2.88;1.67;;;15.40;40.50;;;;;;4994840;27;116124;-83
2023/04/16 12:33:26;;;;;;;3.13;1.73;;;15.30;41.00;;;;;;5045922;27;115167;-85
2023/04/16 12:35:53;;;;;;;3.05;2.05;;;15.40;41.20;;;;;;5063751;27;116215;-82
2023/04/16 12:38:20;;;;;;;3.20;1.83;;;15.50;41.40;;;;;;5079753;27;115390;-83
2023/04/16 12:40:55;;;;;;;3.60;1.65;;;15.70;41.10;;;;;;5062765;27;114450;-85
2023/04/16 12:43:25;;;;;;;2.78;1.63;;;15.70;40.40;;;;;;5062639;27;114578;-86
2023/04/16 12:45:53;;;;;;;2.50;1.60;;;15.70;40.20;;;;;;5062321;27;114946;-84